Aviation Digital Data Service (ADDS)

Output produced by METARs form (1338 UTC 17 August 2019)
found at http://aviationweather.gov/metar/data/
 
EDDW 171320Z 23012KT 9999 -RADZ BKN028 19/17 Q1007 NOSIG
EDDW 171250Z 22013KT 9999 BKN028 21/15 Q1007 NOSIG
EDDW 171220Z 22013KT 9999 BKN028 22/15 Q1007 NOSIG
EDDW 171150Z 22014KT 9999 BKN030 22/15 Q1007 NOSIG
EDDW 171120Z 22013KT 9999 BKN030 22/15 Q1007 NOSIG
EDDW 171050Z 23012KT 9999 BKN027 21/15 Q1007 NOSIG
EDDW 171020Z 22013KT 9999 BKN025 20/15 Q1007 NOSIG
EDDW 170950Z 22013KT 9999 BKN025 20/15 Q1007 NOSIG
EDDW 170920Z AUTO 21013KT //// R27/P2000N // ///////// 19/15 Q1007 NOSIG
EDDW 170850Z 19011KT 160V220 9999 FEW028 BKN040 18/15 Q1007 NOSIG
EDDW 170820Z 19011KT 9999 SCT032 18/15 Q1007 NOSIG
EDDW 170750Z 20007KT 9999 SCT032 17/15 Q1007 NOSIG
EDDW 170720Z 20005KT 170V240 9999 -RA SCT042 18/15 Q1007 NOSIG
EDDW 170650Z 17007KT 150V210 9999 FEW042 18/14 Q1007 NOSIG
EDDW 170620Z 16009KT 9999 FEW042 17/14 Q1007 NOSIG
EDDW 170550Z 14007KT 9999 FEW042 16/14 Q1007 NOSIG
EDDW 170520Z 13005KT 9999 FEW042 16/14 Q1007 NOSIG
EDDW 170450Z 14005KT 9999 FEW042 16/14 Q1007 NOSIG
EDDW 170420Z 14006KT 9999 -RA FEW033 BKN049 16/14 Q1007 NOSIG
EDDW 170350Z 14005KT 110V170 9999 -RA FEW037 16/14 Q1007 NOSIG
EDDW 170320Z 17007KT 9999 -RA FEW042 16/14 Q1008
EDDW 170250Z 17007KT 9999 -RA FEW033 SCT046 16/13 Q1008
EDDW 170220Z 18006KT 9999 -RA SCT041 16/13 Q1009
EDDW 170150Z 17006KT 9999 -RA FEW036 SCT049 16/13 Q1009
EDDW 170120Z 18005KT 9999 -RA FEW034 SCT049 17/13 Q1009
EDDW 170050Z 15005KT 9999 -RA FEW033 SCT049 17/13 Q1009
EDDW 170020Z 15006KT 9999 -RA FEW033 SCT049 17/13 Q1010
EDDW 162350Z 15005KT 9999 -RA FEW033 17/13 Q1010
EDDW 162320Z 14004KT 9999 -RA FEW034 17/13 Q1010
EDDW 162250Z 15005KT 9999 -RA FEW034 BKN100 17/13 Q1011
EDDW 162220Z 16005KT CAVOK 17/13 Q1011
EDDW 162150Z 15005KT CAVOK 17/13 Q1011
EDDW 162120Z 16005KT CAVOK 17/13 Q1012
EDDW 162050Z 15005KT CAVOK 17/13 Q1012
EDDW 162020Z 15005KT 9999 FEW048 18/13 Q1012 NOSIG
EDDW 161950Z 16004KT 9999 FEW049 18/13 Q1012 NOSIG
EDDW 161920Z 16004KT CAVOK 18/12 Q1012 NOSIG
EDDW 161850Z 16004KT 9999 FEW047 18/12 Q1012 NOSIG
EDDW 161820Z 18004KT 9999 FEW048 19/13 Q1012 NOSIG
EDDW 161750Z 20003KT 9999 SCT048 20/12 Q1013 NOSIG
EDDW 161720Z 21006KT CAVOK 21/11 Q1013 NOSIG
EDDW 161650Z 21006KT CAVOK 21/11 Q1013 NOSIG
EDDW 161620Z 19007KT CAVOK 22/11 Q1013 NOSIG
EDDW 161550Z 21008KT CAVOK 23/11 Q1013 NOSIG
EDDW 161520Z 22008KT 180V260 CAVOK 23/10 Q1013 NOSIG
EDDW 161450Z 22009KT 180V250 CAVOK 22/09 Q1014 NOSIG
EDDW 161420Z 23008KT 200V270 CAVOK 22/09 Q1014 NOSIG
EDDW 161350Z 24012KT 190V260 CAVOK 22/09 Q1014 NOSIG
EDDW 161320Z 23013KT CAVOK 22/10 Q1014 NOSIG
EDDW 161250Z 23010KT 9999 SCT045 22/10 Q1015 NOSIG
EDDW 161220Z 23010KT 9999 FEW042 21/11 Q1015 NOSIG
EDDW 161150Z 24009KT 200V270 9999 SCT035 20/11 Q1015 NOSIG
EDDW 161120Z 24010KT 9999 SCT032 20/12 Q1015 NOSIG
EDDW 161050Z 23007KT 210V280 9999 SCT031 20/12 Q1015 NOSIG
EDDW 161020Z 26009KT 220V290 9999 SCT028 19/12 Q1015 NOSIG
EDDW 160950Z 27007KT 230V300 9999 SCT025 19/13 Q1015 NOSIG
EDDW 160920Z 25006KT 220V290 9999 SCT022 19/13 Q1015 NOSIG
EDDW 160850Z 26006KT 220V290 9999 SCT016 18/14 Q1015 NOSIG
EDDW 160820Z 26009KT 9999 FEW012 SCT035 17/14 Q1016 NOSIG
EDDW 160750Z 25009KT 9999 SCT010 BKN035 17/14 Q1016 NOSIG
EDDW 160720Z 24008KT 9999 SCT010 BKN045 16/14 Q1015 NOSIG
EDDW 160650Z 25008KT 9999 FEW014 SCT032 BKN045 15/14 Q1015 TEMPO BKN014
EDDW 160620Z 26007KT 9999 -SHRA SCT012 BKN045 15/14 Q1015 TEMPO BKN012
EDDW 160550Z 26008KT 9999 -SHRA BKN012 BKN030 15/13 Q1015 TEMPO BKN009
EDDW 160520Z 24007KT 9999 SCT030 15/13 Q1015 NOSIG
EDDW 160450Z 24008KT 9999 FEW042 14/13 Q1014 NOSIG
EDDW 160420Z 24011KT 9999 FEW030 14/13 Q1014 NOSIG
EDDW 160350Z 24009KT 9999 FEW025 14/13 Q1014 NOSIG
EDDW 160320Z 25010KT 9999 FEW015 14/13 Q1014
EDDW 160250Z 25011KT 9999 FEW030 15/13 Q1013
EDDW 160220Z 23010KT CAVOK 15/13 Q1013
EDDW 160150Z 24011KT CAVOK 15/13 Q1013
TAF EDDW 171100Z 1712/1812 21011KT 9999 FEW012 BKN025 
     TEMPO 1712/1717 23015G25KT 
     PROB30 
     TEMPO 1712/1717 4000 RADZ 
     TEMPO 1712/1804 BKN012 
     BECMG 1717/1719 20006KT 
     PROB30 
     TEMPO 1722/1804 3500 BR BKN006 
     BECMG 1804/1806 BKN012 
     TEMPO 1804/1810 3500 RA BKN006 
     BECMG 1808/1812 26008KT SCT012 BKN020